< Typhoon 199010 1990 Season Typhoon 199012 >
Typhoon 199011 (WINONA)
General InformationTrack Information on Google MapsDetailed Wind InformationList of All Images || NewsDisaster Info.ResourceGoogle EarthGE AnimationAtom FeedGeoJSON
Detalied Best Track (Time Zone = UTC)
Year Month Day Hour Lat. Long. Pressure (hPa) Wind (kt) Class Image Chart
1990 8 4 18 30.0 125.5 1000 0 2 Image Chart
1990 8 5 00 30.5 126.5 1000 0 2 Image Chart
1990 8 5 06 31.3 127.5 1000 0 2 Image Chart
1990 8 5 12 31.2 128.8 1000 0 2 Image Chart
1990 8 5 18 31.2 129.6 998 0 2 Image Chart
1990 8 6 00 30.9 130.8 998 0 2 Image Chart
1990 8 6 06 30.0 132.0 996 0 2 Image Chart
1990 8 6 12 29.1 132.9 996 0 2 Image Chart
1990 8 6 18 28.0 133.3 994 35 3 Image Chart
1990 8 7 00 27.0 133.8 992 40 3 Image Chart
1990 8 7 06 26.3 134.7 992 40 3 Image Chart
1990 8 7 12 26.3 135.3 990 45 3 Image Chart
1990 8 7 18 26.3 136.0 990 45 3 Image Chart
1990 8 8 00 26.3 136.8 985 50 4 Image Chart
1990 8 8 06 27.0 137.3 985 50 4 Image Chart
1990 8 8 12 27.8 137.4 985 50 4 Image Chart
1990 8 8 18 28.6 137.4 985 50 4 Image Chart
1990 8 9 00 29.4 137.3 985 50 4 Image Chart
1990 8 9 06 30.9 137.3 980 55 4 Image Chart
1990 8 9 12 32.3 137.3 975 60 4 Image Chart
1990 8 9 18 33.7 137.5 975 60 4 Image Chart
1990 8 10 00 34.8 138.4 980 55 4 Image Chart
1990 8 10 06 36.5 139.6 988 50 4 Image Chart
1990 8 10 12 38.5 141.0 994 45 3 Image Chart
1990 8 10 18 40.1 142.5 992 45 3 Image Chart
1990 8 11 00 42.2 144.3 992 40 3 Image Chart
1990 8 11 06 44.3 146.1 992 40 3 Image Chart
1990 8 11 12 46.0 150.0 990 0 6 Image Chart
1990 8 11 18 47.0 154.0 988 0 6 Image Chart
1990 8 12 00 48.0 159.0 988 0 6 Image Chart
1990 8 12 06 49.0 163.0 988 0 6 Image Chart
1990 8 12 12 50.0 166.0 988 0 6 Image Chart
1990 8 12 18 52.0 170.0 990 0 6 Image Chart
1990 8 13 00 54.0 174.0 992 0 6 Image Chart
1990 8 13 06 56.0 177.0 992 0 6 Image Chart
1990 8 13 12 58.0 179.0 992 0 6 Image Chart
1990 8 13 18 59.0 177.0 992 0 6 Image Chart
1990 8 14 00 60.0 175.0 992 0 6 Image Chart
1990 8 14 06 61.0 173.0 990 0 6 Image Chart
Japan Meteorological Agency Best Track Data | Correction Date : 1992-10-21
< Typhoon 199010 1990 Season Typhoon 199012 >

Help